Time;durP1;ratioP1;P1;durP2;ratioP2;P2;SDS_P1;SDS_P2;PMS_P1;PMS_P2;Temp;Humidity;BMP_temperature;BMP_pressure;BME280_temperature;BME280_humidity;BME280_pressure;Samples;Min_cycle;Max_cycle;Signal;HPM_P1;HPM_P2
2023/07/05 00:02:19;;;;;;;6.30;2.00;;;17.70;7.80;;;;;;4992315;28;20219;-69
2023/07/05 00:04:45;;;;;;;2.10;1.40;;;17.80;7.80;;;;;;4992535;28;20418;-69
2023/07/05 00:07:10;;;;;;;3.63;1.93;;;17.80;7.70;;;;;;4992635;28;20188;-69
2023/07/05 00:09:36;;;;;;;2.33;1.60;;;17.90;7.80;;;;;;4992635;28;20616;-69
2023/07/05 00:12:02;;;;;;;2.70;1.80;;;17.90;7.40;;;;;;4992368;28;20224;-69
2023/07/05 00:14:27;;;;;;;5.53;1.63;;;18.00;7.30;;;;;;4992478;28;20208;-69
2023/07/05 00:16:53;;;;;;;8.50;1.63;;;18.00;7.40;;;;;;4992794;28;20188;-69
2023/07/05 00:19:18;;;;;;;2.10;1.33;;;18.00;7.30;;;;;;4992593;28;20419;-69
2023/07/05 00:21:44;;;;;;;2.47;1.77;;;18.00;7.00;;;;;;4992198;28;20215;-69
2023/07/05 00:24:09;;;;;;;1.80;1.50;;;18.00;7.40;;;;;;4992573;28;20207;-69
2023/07/05 00:26:35;;;;;;;1.93;1.20;;;18.00;7.80;;;;;;4992643;28;20920;-69
2023/07/05 00:29:00;;;;;;;2.60;1.80;;;18.00;7.90;;;;;;4992480;28;20236;-69
2023/07/05 00:31:26;;;;;;;3.07;1.40;;;18.00;8.10;;;;;;4992419;28;20207;-69
2023/07/05 00:33:51;;;;;;;3.67;2.57;;;18.00;7.80;;;;;;4992267;28;20185;-69
2023/07/05 00:36:17;;;;;;;4.23;1.70;;;18.00;7.90;;;;;;4992470;28;20185;-69
2023/07/05 00:38:42;;;;;;;2.40;1.87;;;18.00;7.70;;;;;;4992307;28;20227;-70
2023/07/05 00:41:08;;;;;;;1.90;1.30;;;18.10;7.70;;;;;;4992382;28;20227;-68
2023/07/05 00:43:33;;;;;;;3.27;1.93;;;18.20;7.50;;;;;;4992027;28;20196;-69
2023/07/05 00:46:11;;;;;;;1.90;1.40;;;18.30;7.10;;;;;;4992542;28;20176;-69
2023/07/05 00:48:41;;;;;;;3.83;1.97;;;18.40;6.40;;;;;;4992316;28;20661;-69
2023/07/05 00:51:17;;;;;;;2.30;1.33;;;18.60;6.60;;;;;;4992287;28;20412;-68
2023/07/05 00:53:42;;;;;;;2.27;1.40;;;18.60;6.60;;;;;;4995962;28;20983;-68
2023/07/05 00:56:28;;;;;;;2.73;1.60;;;18.60;6.60;;;;;;4995903;28;20463;-69
2023/07/05 00:58:55;;;;;;;2.53;1.60;;;18.70;6.20;;;;;;4996033;28;20176;-69
2023/07/05 01:01:21;;;;;;;2.33;1.70;;;18.70;6.40;;;;;;4995745;28;20485;-69
2023/07/05 01:03:51;;;;;;;3.13;2.03;;;18.80;5.80;;;;;;4995686;28;20407;-69
2023/07/05 01:06:19;;;;;;;3.60;1.63;;;18.90;5.40;;;;;;4995887;28;20227;-69
2023/07/05 01:08:44;;;;;;;2.63;2.30;;;19.00;5.10;;;;;;4995774;28;20420;-69
2023/07/05 01:11:28;;;;;;;2.10;1.80;;;19.00;5.60;;;;;;4995727;28;20477;-69
2023/07/05 01:14:43;;;;;;;3.10;1.77;;;19.10;5.10;;;;;;4995731;28;20278;-69
2023/07/05 01:17:53;;;;;;;2.43;1.80;;;19.10;5.20;;;;;;4972518;28;20473;-69
2023/07/05 01:20:34;;;;;;;1.83;1.40;;;19.10;5.40;;;;;;4992579;28;20526;-69
2023/07/05 01:23:40;;;;;;;3.10;1.53;;;19.00;5.90;;;;;;4995272;28;20439;-69
2023/07/05 01:26:33;;;;;;;2.67;1.80;;;18.90;6.80;;;;;;4995467;28;20497;-69
2023/07/05 01:29:01;;;;;;;1.93;1.33;;;18.80;6.80;;;;;;4995461;28;20412;-69
2023/07/05 01:31:54;;;;;;;1.90;1.40;;;18.70;6.70;;;;;;4995109;28;20643;-68
2023/07/05 01:34:43;;;;;;;2.80;1.70;;;18.70;7.00;;;;;;4994079;28;20463;-68
2023/07/05 01:37:22;;;;;;;2.27;1.50;;;18.60;7.70;;;;;;4995345;28;20416;-67
2023/07/05 01:39:48;;;;;;;2.47;1.80;;;18.60;7.90;;;;;;4995209;28;20420;-69
2023/07/05 01:42:14;;;;;;;2.10;1.60;;;18.60;7.90;;;;;;4994926;28;20510;-69
2023/07/05 01:44:39;;;;;;;3.40;2.20;;;18.60;7.90;;;;;;4995176;28;20185;-69
2023/07/05 01:47:16;;;;;;;1.80;1.20;;;18.60;7.70;;;;;;4995046;28;20315;-69
2023/07/05 01:49:52;;;;;;;2.37;1.50;;;18.50;8.20;;;;;;4995114;28;20584;-69
2023/07/05 01:52:36;;;;;;;3.90;2.10;;;18.40;8.30;;;;;;4994709;28;20439;-69
2023/07/05 01:55:12;;;;;;;2.53;1.70;;;18.40;8.70;;;;;;4994946;28;20844;-69
2023/07/05 01:58:22;;;;;;;2.57;1.83;;;18.40;8.20;;;;;;4994923;28;20510;-69
2023/07/05 02:00:50;;;;;;;1.60;1.10;;;18.50;7.60;;;;;;4994705;28;20419;-69
2023/07/05 02:03:19;;;;;;;2.20;1.83;;;18.50;7.80;;;;;;5017010;23;20530;-67
2023/07/05 02:05:47;;;;;;;2.17;1.67;;;18.50;7.80;;;;;;4994741;28;20940;-68
2023/07/05 02:08:13;;;;;;;2.77;1.37;;;18.60;8.40;;;;;;4995010;28;20408;-67
2023/07/05 02:10:39;;;;;;;2.60;1.90;;;18.60;7.50;;;;;;4994668;28;20481;-67
2023/07/05 02:13:08;;;;;;;2.30;1.70;;;18.60;7.60;;;;;;4992914;28;20443;-67
2023/07/05 02:15:37;;;;;;;5.00;1.43;;;18.70;7.20;;;;;;4994483;28;20467;-67
2023/07/05 02:18:03;;;;;;;2.27;1.87;;;18.70;8.10;;;;;;4994560;28;20939;-67
2023/07/05 02:20:30;;;;;;;2.70;1.77;;;18.70;9.60;;;;;;4994649;28;20507;-67
2023/07/05 02:22:56;;;;;;;3.53;1.37;;;18.60;10.20;;;;;;4994057;28;20427;-68
2023/07/05 02:25:21;;;;;;;2.57;1.40;;;18.60;11.10;;;;;;4993205;28;21033;-67
2023/07/05 02:27:47;;;;;;;2.60;1.23;;;18.50;11.80;;;;;;4994355;28;20181;-67
2023/07/05 02:30:13;;;;;;;2.50;1.40;;;18.40;12.00;;;;;;4994251;28;20191;-67
2023/07/05 02:32:39;;;;;;;3.50;1.60;;;18.40;11.90;;;;;;4993989;28;20235;-67
2023/07/05 02:35:07;;;;;;;2.27;1.60;;;18.40;12.00;;;;;;4994194;28;20212;-67
2023/07/05 02:37:32;;;;;;;3.37;2.13;;;18.40;11.60;;;;;;4994239;28;20404;-67
2023/07/05 02:39:58;;;;;;;2.40;1.97;;;18.40;11.10;;;;;;4994081;28;20825;-67
2023/07/05 02:42:24;;;;;;;3.60;2.13;;;18.20;12.60;;;;;;4993650;28;20189;-68
2023/07/05 02:44:51;;;;;;;4.00;2.10;;;18.20;12.50;;;;;;4993923;28;20173;-67
2023/07/05 02:47:18;;;;;;;3.10;1.90;;;18.20;12.60;;;;;;4993975;28;20412;-68
2023/07/05 02:49:44;;;;;;;3.33;1.87;;;18.20;12.40;;;;;;4993941;28;20511;-67
2023/07/05 02:52:10;;;;;;;3.17;2.37;;;18.10;13.50;;;;;;4993601;28;20873;-67
2023/07/05 02:54:36;;;;;;;3.20;2.40;;;18.00;14.30;;;;;;4992537;28;20521;-67
2023/07/05 02:57:02;;;;;;;3.90;2.17;;;17.80;15.80;;;;;;4993767;28;20572;-67
2023/07/05 02:59:28;;;;;;;2.30;1.60;;;17.60;16.80;;;;;;4993831;28;20176;-67
2023/07/05 03:01:53;;;;;;;3.90;2.40;;;17.50;18.40;;;;;;4993278;28;20442;-67
2023/07/05 03:04:19;;;;;;;5.20;3.13;;;17.60;19.30;;;;;;4993683;28;20177;-68
2023/07/05 03:06:44;;;;;;;4.60;2.50;;;17.50;20.60;;;;;;4993604;28;20219;-69
2023/07/05 03:09:10;;;;;;;5.50;3.23;;;17.50;23.50;;;;;;4993578;28;20184;-69
2023/07/05 03:11:36;;;;;;;4.23;2.47;;;17.30;26.30;;;;;;4993084;28;20181;-69
2023/07/05 03:14:01;;;;;;;5.60;2.57;;;17.20;25.40;;;;;;4993199;28;20419;-69
2023/07/05 03:16:27;;;;;;;2.93;2.23;;;17.10;27.50;;;;;;4991937;28;20212;-69
2023/07/05 03:18:52;;;;;;;5.07;2.73;;;17.10;28.70;;;;;;4993364;28;20604;-69
2023/07/05 03:21:18;;;;;;;7.13;2.57;;;17.00;28.90;;;;;;4993285;28;20548;-69
2023/07/05 03:23:43;;;;;;;5.20;2.10;;;16.90;31.00;;;;;;4993028;28;20196;-69
2023/07/05 03:26:10;;;;;;;3.20;2.57;;;16.80;32.90;;;;;;4993156;28;20212;-70
2023/07/05 03:28:37;;;;;;;3.00;2.47;;;16.70;35.00;;;;;;4991890;28;20204;-69
2023/07/05 03:31:05;;;;;;;4.00;2.07;;;16.70;35.80;;;;;;4993200;28;20835;-69
2023/07/05 03:33:32;;;;;;;3.03;2.10;;;16.80;35.80;;;;;;4991725;28;20478;-69
2023/07/05 03:36:11;;;;;;;2.50;1.60;;;16.80;36.60;;;;;;4991758;28;20478;-69
2023/07/05 03:38:37;;;;;;;3.23;2.40;;;16.90;36.10;;;;;;4993114;28;20432;-69
2023/07/05 03:41:22;;;;;;;4.37;1.60;;;17.00;35.90;;;;;;4993063;28;20446;-69
2023/07/05 03:43:52;;;;;;;3.33;2.07;;;17.00;36.10;;;;;;4993022;28;20250;-69
2023/07/05 03:46:18;;;;;;;2.80;2.00;;;17.10;35.30;;;;;;4992855;28;20423;-70
2023/07/05 03:48:45;;;;;;;3.50;1.57;;;17.10;34.40;;;;;;4991698;28;20423;-69
2023/07/05 03:51:12;;;;;;;2.80;1.87;;;17.10;34.40;;;;;;4992850;28;20183;-69
2023/07/05 03:53:38;;;;;;;2.37;1.70;;;17.20;33.60;;;;;;4992597;28;20590;-69
2023/07/05 03:56:06;;;;;;;2.70;1.90;;;17.20;33.50;;;;;;4992827;28;20784;-69
2023/07/05 03:58:32;;;;;;;2.60;1.23;;;17.30;33.10;;;;;;4992944;28;20716;-68
2023/07/05 04:01:03;;;;;;;3.30;1.97;;;17.30;32.10;;;;;;4992968;28;20430;-70
2023/07/05 04:03:29;;;;;;;3.87;1.57;;;17.40;31.60;;;;;;4992911;28;20454;-69
2023/07/05 04:05:54;;;;;;;4.97;1.77;;;17.40;32.20;;;;;;4992804;28;20447;-71
2023/07/05 04:08:20;;;;;;;2.80;1.40;;;17.40;31.30;;;;;;4992765;28;20204;-69
2023/07/05 04:10:49;;;;;;;4.43;1.90;;;17.50;30.20;;;;;;4992751;28;20263;-70
2023/07/05 04:13:15;;;;;;;2.23;1.40;;;17.50;30.00;;;;;;4992239;28;20204;-71
2023/07/05 04:15:40;;;;;;;3.20;1.00;;;17.50;29.70;;;;;;4992468;28;20466;-71
2023/07/05 04:18:06;;;;;;;4.63;1.20;;;17.50;28.80;;;;;;4993428;28;20204;-69
2023/07/05 04:20:32;;;;;;;3.00;1.60;;;17.60;29.40;;;;;;4992469;28;20412;-69
2023/07/05 04:22:59;;;;;;;2.60;1.50;;;17.60;27.40;;;;;;4992195;28;20530;-70
2023/07/05 04:25:24;;;;;;;2.40;1.33;;;17.80;27.00;;;;;;4992461;28;20187;-70
2023/07/05 04:27:50;;;;;;;3.33;1.47;;;17.90;26.20;;;;;;4995188;28;20604;-70
2023/07/05 04:30:15;;;;;;;2.63;1.30;;;18.00;24.80;;;;;;4996480;28;20178;-70
2023/07/05 04:32:41;;;;;;;2.60;1.33;;;18.00;23.80;;;;;;4996112;28;20201;-70
2023/07/05 04:35:07;;;;;;;2.37;1.37;;;18.00;24.20;;;;;;4996229;28;20735;-70
2023/07/05 04:37:32;;;;;;;2.87;1.80;;;18.00;23.80;;;;;;4996292;28;20189;-69
2023/07/05 04:39:58;;;;;;;5.17;1.63;;;18.10;23.90;;;;;;4996407;28;20645;-69
2023/07/05 04:42:23;;;;;;;2.27;1.30;;;18.10;23.90;;;;;;4994612;28;20208;-70
2023/07/05 04:44:49;;;;;;;2.53;1.20;;;18.10;23.90;;;;;;4996263;28;20176;-69
2023/07/05 04:47:14;;;;;;;2.97;1.30;;;18.10;23.90;;;;;;4996202;28;20182;-69
2023/07/05 04:49:40;;;;;;;4.90;1.70;;;18.10;23.80;;;;;;4996406;28;20641;-69
2023/07/05 04:52:06;;;;;;;2.30;1.20;;;18.10;23.40;;;;;;4995817;28;20246;-71
2023/07/05 04:54:31;;;;;;;5.80;1.30;;;18.10;23.40;;;;;;4995893;28;20231;-71
2023/07/05 04:56:57;;;;;;;3.47;1.70;;;18.00;23.80;;;;;;4995984;28;20944;-70
2023/07/05 04:59:22;;;;;;;5.10;2.47;;;18.00;23.80;;;;;;4995883;28;20581;-69
2023/07/05 05:01:48;;;;;;;2.50;1.50;;;18.00;23.80;;;;;;4994210;28;20172;-69
2023/07/05 05:04:13;;;;;;;4.63;2.13;;;18.00;23.90;;;;;;4995834;28;20574;-69
2023/07/05 05:06:39;;;;;;;3.23;1.90;;;18.00;23.80;;;;;;4994562;28;20180;-70
2023/07/05 05:09:05;;;;;;;3.80;1.70;;;18.00;24.20;;;;;;4995971;28;20251;-70
2023/07/05 05:11:30;;;;;;;5.73;1.73;;;18.00;24.60;;;;;;4995592;28;20499;-70
2023/07/05 05:13:57;;;;;;;3.40;2.00;;;18.00;24.50;;;;;;4996142;28;20224;-71
2023/07/05 05:16:22;;;;;;;7.30;2.40;;;18.10;23.90;;;;;;4995521;28;20204;-68
2023/07/05 05:18:48;;;;;;;3.80;1.80;;;18.20;24.00;;;;;;4995432;28;20422;-68
2023/07/05 05:21:14;;;;;;;2.63;1.57;;;18.30;23.00;;;;;;4995480;28;20647;-66
2023/07/05 05:23:39;;;;;;;3.63;1.87;;;18.40;22.60;;;;;;4995121;28;20188;-67
2023/07/05 05:26:05;;;;;;;7.10;2.30;;;18.60;21.90;;;;;;4995270;28;20177;-68
2023/07/05 05:28:30;;;;;;;6.30;3.00;;;18.60;21.80;;;;;;4995386;28;20267;-68
2023/07/05 05:31:08;;;;;;;4.77;2.50;;;18.70;20.00;;;;;;4994153;28;20184;-67
2023/07/05 05:33:34;;;;;;;5.43;2.00;;;18.90;19.80;;;;;;4994879;28;20539;-67
2023/07/05 05:36:00;;;;;;;3.67;1.90;;;19.00;20.20;;;;;;4995101;28;20466;-67
2023/07/05 05:38:26;;;;;;;2.67;1.80;;;19.20;18.90;;;;;;4995052;28;20415;-67
2023/07/05 05:40:52;;;;;;;2.80;2.17;;;19.60;17.40;;;;;;4995006;28;20915;-67
2023/07/05 05:43:19;;;;;;;3.70;1.93;;;20.20;15.40;;;;;;4994661;28;20192;-67
2023/07/05 05:45:44;;;;;;;4.10;2.07;;;22.50;9.30;;;;;;4995115;28;20408;-68
2023/07/05 05:48:10;;;;;;;4.47;2.43;;;25.80;2.10;;;;;;4993705;28;20490;-67
2023/07/05 05:50:36;;;;;;;3.73;2.57;;;28.30;1.00;;;;;;4994953;28;20382;-68
2023/07/05 05:53:02;;;;;;;2.80;2.60;;;30.30;1.00;;;;;;4994598;28;20554;-68
2023/07/05 05:55:28;;;;;;;3.30;3.10;;;31.80;1.00;;;;;;4994704;28;20204;-68
2023/07/05 05:57:54;;;;;;;9.47;4.63;;;32.70;1.00;;;;;;4994762;28;20412;-68
2023/07/05 06:00:19;;;;;;;7.50;4.80;;;33.90;1.00;;;;;;4993469;28;20587;-68
2023/07/05 06:02:45;;;;;;;4.40;4.00;;;34.00;1.00;;;;;;4994261;28;20493;-68
2023/07/05 06:05:11;;;;;;;11.73;4.57;;;34.40;1.00;;;;;;4994528;28;20188;-68
2023/07/05 06:07:37;;;;;;;5.73;4.13;;;33.90;1.00;;;;;;4994550;28;20185;-68
2023/07/05 06:10:03;;;;;;;4.30;3.90;;;34.40;1.00;;;;;;4994518;28;20246;-68
2023/07/05 06:12:28;;;;;;;3.97;3.67;;;33.00;1.00;;;;;;4994273;28;20526;-68
2023/07/05 06:14:54;;;;;;;10.37;6.20;;;33.20;1.00;;;;;;4994039;28;20291;-68
2023/07/05 06:17:19;;;;;;;6.53;4.80;;;34.80;1.00;;;;;;4994380;28;20180;-68
2023/07/05 06:19:45;;;;;;;5.00;4.60;;;35.20;1.00;;;;;;4993246;28;20176;-68
2023/07/05 06:22:10;;;;;;;4.43;4.03;;;35.60;1.00;;;;;;4994104;28;20192;-68
2023/07/05 06:24:36;;;;;;;3.60;3.40;;;33.80;1.00;;;;;;4994267;28;20216;-69
2023/07/05 06:27:01;;;;;;;3.20;3.00;;;34.60;1.00;;;;;;4994352;28;20539;-68
2023/07/05 06:29:27;;;;;;;5.90;3.77;;;34.80;1.00;;;;;;4994208;28;20169;-68
2023/07/05 06:31:53;;;;;;;3.70;3.50;;;36.10;1.00;;;;;;4993928;28;20653;-68
2023/07/05 06:34:18;;;;;;;4.00;3.70;;;34.90;1.00;;;;;;4992775;28;20191;-68
2023/07/05 06:36:44;;;;;;;3.80;3.60;;;34.90;1.00;;;;;;4994439;28;20630;-68
2023/07/05 06:39:09;;;;;;;5.50;3.17;;;32.50;1.00;;;;;;4994088;28;20185;-68
2023/07/05 06:41:35;;;;;;;5.30;4.23;;;29.90;1.00;;;;;;4992368;28;20251;-68
2023/07/05 06:44:01;;;;;;;5.90;4.17;;;29.30;1.00;;;;;;4988962;28;20260;-69
2023/07/05 06:46:27;;;;;;;3.87;3.57;;;28.20;1.00;;;;;;4990478;28;20670;-68
2023/07/05 06:48:52;;;;;;;3.63;2.73;;;28.40;1.00;;;;;;4993540;28;20412;-70
2023/07/05 06:51:18;;;;;;;3.90;3.13;;;27.80;1.00;;;;;;4993122;28;20181;-68
2023/07/05 06:53:44;;;;;;;3.10;2.90;;;27.20;1.00;;;;;;4993367;28;20317;-68
2023/07/05 06:56:10;;;;;;;3.37;3.07;;;26.30;1.00;;;;;;4993377;28;20557;-68
2023/07/05 06:58:36;;;;;;;3.00;2.70;;;25.10;1.00;;;;;;4993432;28;20219;-68
2023/07/05 07:01:02;;;;;;;4.67;2.90;;;24.50;1.00;;;;;;4993591;28;20168;-68
2023/07/05 07:03:28;;;;;;;4.83;3.30;;;24.40;1.00;;;;;;4993057;28;20467;-68
2023/07/05 07:05:55;;;;;;;3.23;2.30;;;24.10;1.00;;;;;;4992165;28;20471;-68
2023/07/05 07:08:21;;;;;;;5.60;2.30;;;23.50;1.00;;;;;;4993472;28;20544;-68
2023/07/05 07:10:47;;;;;;;3.07;2.00;;;22.70;2.20;;;;;;4993379;28;20419;-67
2023/07/05 07:13:14;;;;;;;9.50;2.63;;;21.40;9.30;;;;;;4992996;28;20502;-68
2023/07/05 07:15:39;;;;;;;8.33;2.80;;;20.50;14.70;;;;;;4993279;28;20969;-68
2023/07/05 07:18:05;;;;;;;6.13;2.67;;;19.90;19.60;;;;;;4993435;28;20408;-69
2023/07/05 07:20:31;;;;;;;3.83;2.07;;;19.30;22.40;;;;;;4992364;28;20215;-67
2023/07/05 07:22:57;;;;;;;4.80;2.60;;;18.90;24.80;;;;;;4992950;28;20213;-67
2023/07/05 07:25:22;;;;;;;3.03;2.03;;;18.50;27.40;;;;;;4993170;28;20540;-67
2023/07/05 07:27:48;;;;;;;5.50;2.53;;;18.20;27.80;;;;;;4991855;28;20680;-69
2023/07/05 07:30:14;;;;;;;8.00;2.33;;;18.00;28.90;;;;;;4993076;28;20721;-69
2023/07/05 07:32:39;;;;;;;3.67;2.30;;;17.90;29.80;;;;;;4992584;28;20247;-69
2023/07/05 07:35:05;;;;;;;6.93;2.90;;;17.90;31.00;;;;;;4993228;28;20463;-68
2023/07/05 07:37:32;;;;;;;9.50;5.10;;;18.10;30.60;;;;;;4992933;28;20177;-68
2023/07/05 07:39:57;;;;;;;5.73;2.73;;;18.20;30.00;;;;;;4992898;28;20423;-68
2023/07/05 07:42:23;;;;;;;9.07;4.47;;;18.30;29.10;;;;;;4992423;28;20450;-68
2023/07/05 07:44:48;;;;;;;4.37;2.90;;;18.60;30.80;;;;;;4993339;28;20211;-68
2023/07/05 07:47:14;;;;;;;3.90;2.10;;;18.70;28.60;;;;;;4992794;28;20181;-69
2023/07/05 07:49:39;;;;;;;2.73;1.10;;;18.80;27.80;;;;;;4992703;28;20177;-68
2023/07/05 07:52:07;;;;;;;4.13;1.87;;;18.40;25.50;;;;;;4992708;28;20216;-68
2023/07/05 07:54:33;;;;;;;2.63;1.10;;;18.20;23.30;;;;;;4992628;28;20199;-69
2023/07/05 07:56:59;;;;;;;2.83;1.13;;;18.00;24.70;;;;;;4992567;28;20412;-68
2023/07/05 07:59:25;;;;;;;2.43;1.10;;;17.90;25.50;;;;;;4992503;28;20415;-68
2023/07/05 08:04:18;;;;;;;2.90;1.50;;;17.80;25.00;;;;;;5014023;22;20713;-69
2023/07/05 08:06:45;;;;;;;2.80;1.10;;;17.90;26.20;;;;;;4994262;28;20422;-70
2023/07/05 08:09:13;;;;;;;2.47;1.10;;;17.80;26.10;;;;;;4992446;28;20645;-70
2023/07/05 08:11:39;;;;;;;4.03;1.17;;;17.60;28.10;;;;;;4993570;28;20435;-70
2023/07/05 08:14:08;;;;;;;2.47;1.17;;;17.60;28.90;;;;;;4993425;28;20459;-70
2023/07/05 08:16:34;;;;;;;2.47;1.60;;;17.50;29.20;;;;;;4993722;28;20184;-68
2023/07/05 08:19:00;;;;;;;3.40;1.20;;;17.30;31.80;;;;;;4993811;28;20412;-69
2023/07/05 08:21:26;;;;;;;2.03;1.20;;;17.30;31.10;;;;;;4994157;28;20260;-69
2023/07/05 08:23:51;;;;;;;4.90;1.80;;;17.30;32.10;;;;;;4993892;28;20216;-68
2023/07/05 08:26:17;;;;;;;2.17;1.20;;;17.20;33.20;;;;;;4993679;28;20419;-69
2023/07/05 08:28:43;;;;;;;1.83;1.00;;;17.10;33.30;;;;;;4992807;28;20204;-68
2023/07/05 08:31:09;;;;;;;2.47;1.70;;;16.80;33.80;;;;;;4992689;28;20184;-69
2023/07/05 08:33:36;;;;;;;3.83;2.07;;;16.70;36.90;;;;;;4992287;28;20432;-68
2023/07/05 08:36:08;;;;;;;2.90;1.67;;;17.10;35.00;;;;;;4992724;28;20491;-68
2023/07/05 08:38:35;;;;;;;3.00;1.77;;;17.30;33.80;;;;;;4992352;28;20427;-69
2023/07/05 08:41:18;;;;;;;2.73;1.60;;;17.50;34.50;;;;;;4992585;28;20848;-69
2023/07/05 08:43:52;;;;;;;2.63;1.20;;;17.60;30.40;;;;;;4991170;28;20455;-69
2023/07/05 08:46:18;;;;;;;2.47;1.50;;;17.90;32.70;;;;;;4992906;28;20780;-68
2023/07/05 08:48:47;;;;;;;2.40;1.33;;;18.20;28.00;;;;;;4992640;28;20848;-69
2023/07/05 08:51:15;;;;;;;4.53;1.57;;;18.40;26.80;;;;;;4992449;28;20862;-69
2023/07/05 08:53:51;;;;;;;2.10;1.20;;;18.70;25.40;;;;;;4992076;28;20483;-69
2023/07/05 08:56:45;;;;;;;2.57;1.20;;;18.90;24.50;;;;;;4992571;28;20478;-69
2023/07/05 08:59:22;;;;;;;3.80;1.60;;;18.90;22.10;;;;;;4988909;28;20429;-70
2023/07/05 09:01:51;;;;;;;3.33;1.80;;;19.10;21.80;;;;;;4992155;28;20411;-70
2023/07/05 09:04:25;;;;;;;14.17;5.60;;;19.50;23.00;;;;;;4992009;28;20455;-70
2023/07/05 09:07:24;;;;;;;3.47;1.60;;;19.40;21.80;;;;;;4992072;28;20503;-69
2023/07/05 09:10:07;;;;;;;5.63;1.57;;;19.80;21.60;;;;;;4992091;28;20420;-70
2023/07/05 09:13:00;;;;;;;2.83;1.60;;;19.80;20.60;;;;;;4991120;28;20471;-70
2023/07/05 09:15:32;;;;;;;4.03;1.63;;;20.00;18.40;;;;;;4995838;28;20482;-70
2023/07/05 09:18:14;;;;;;;3.13;1.33;;;21.10;14.90;;;;;;4995816;28;20407;-69
2023/07/05 09:20:48;;;;;;;2.90;1.80;;;21.40;14.00;;;;;;4995814;28;20500;-70
2023/07/05 09:23:29;;;;;;;2.17;1.33;;;22.40;11.60;;;;;;4995507;28;20422;-70
2023/07/05 09:26:03;;;;;;;2.07;1.10;;;23.10;9.50;;;;;;4995659;28;20415;-70
2023/07/05 09:28:42;;;;;;;2.20;1.43;;;22.60;8.10;;;;;;4995573;28;20438;-72
2023/07/05 09:31:12;;;;;;;2.40;1.50;;;22.70;7.20;;;;;;4995830;28;20422;-73
2023/07/05 09:33:44;;;;;;;2.17;1.80;;;22.60;6.60;;;;;;4995374;28;20432;-72
2023/07/05 09:36:19;;;;;;;2.03;1.30;;;22.60;7.80;;;;;;4995651;28;21027;-72
2023/07/05 09:38:47;;;;;;;2.53;1.30;;;22.90;7.00;;;;;;4995430;28;20469;-72
2023/07/05 09:41:19;;;;;;;2.80;1.90;;;23.20;5.20;;;;;;4995446;28;20420;-72
2023/07/05 09:43:44;;;;;;;10.43;2.13;;;22.70;9.60;;;;;;4993766;28;20436;-73
2023/07/05 09:46:31;;;;;;;3.40;1.60;;;22.40;10.20;;;;;;4995216;28;20905;-72
2023/07/05 09:48:57;;;;;;;2.57;1.40;;;22.60;12.20;;;;;;4995503;28;20181;-72
2023/07/05 09:51:23;;;;;;;3.67;1.43;;;21.90;7.70;;;;;;4995302;28;20913;-72
2023/07/05 09:53:55;;;;;;;2.20;1.53;;;21.90;8.80;;;;;;4995219;28;20207;-72
2023/07/05 09:56:27;;;;;;;2.50;1.67;;;21.90;8.90;;;;;;4995246;28;20459;-71
2023/07/05 09:59:07;;;;;;;1.90;1.60;;;22.60;10.30;;;;;;4995267;28;20991;-73
2023/07/05 10:01:35;;;;;;;2.53;1.80;;;22.50;4.20;;;;;;4994662;28;20411;-71
2023/07/05 10:04:04;;;;;;;2.60;1.60;;;22.40;6.00;;;;;;4994448;28;20447;-72
2023/07/05 10:06:29;;;;;;;3.00;1.37;;;22.70;6.30;;;;;;4994744;28;20428;-71
2023/07/05 10:08:59;;;;;;;3.23;1.70;;;22.40;4.60;;;;;;4994591;28;20482;-72
2023/07/05 10:11:34;;;;;;;2.33;1.60;;;22.00;7.50;;;;;;4994705;28;20215;-72
2023/07/05 10:14:06;;;;;;;2.80;1.87;;;22.40;8.10;;;;;;4994761;28;20462;-72
2023/07/05 10:16:45;;;;;;;2.50;1.50;;;22.40;7.50;;;;;;4994496;28;20463;-72
2023/07/05 10:19:38;;;;;;;3.03;2.03;;;22.60;5.30;;;;;;4994924;28;20412;-71
2023/07/05 10:22:12;;;;;;;4.63;1.50;;;22.50;5.70;;;;;;4994213;28;20771;-71
2023/07/05 10:24:47;;;;;;;2.73;1.53;;;22.40;4.00;;;;;;4993919;28;20492;-72
2023/07/05 10:27:31;;;;;;;2.60;1.70;;;22.50;3.90;;;;;;4994740;28;20428;-71
2023/07/05 10:30:05;;;;;;;6.23;2.27;;;22.50;6.50;;;;;;4994434;28;20443;-69
2023/07/05 10:32:31;;;;;;;2.40;2.00;;;22.40;2.00;;;;;;4993948;28;20432;-71
2023/07/05 10:34:57;;;;;;;3.53;2.40;;;22.30;3.30;;;;;;4994124;28;20455;-71
2023/07/05 10:37:27;;;;;;;2.87;1.93;;;22.40;2.60;;;;;;4994155;28;20812;-71
2023/07/05 10:39:52;;;;;;;2.57;2.37;;;22.40;2.20;;;;;;4993927;28;20435;-72
2023/07/05 10:42:18;;;;;;;2.80;2.13;;;22.50;3.00;;;;;;4993707;28;20933;-73
2023/07/05 10:44:44;;;;;;;3.57;2.30;;;22.50;1.90;;;;;;4992632;28;20752;-72
2023/07/05 10:47:13;;;;;;;3.10;2.17;;;22.60;2.00;;;;;;4993861;28;20183;-72
2023/07/05 10:49:39;;;;;;;3.27;2.20;;;23.20;1.00;;;;;;4993962;28;20208;-72
2023/07/05 10:52:10;;;;;;;3.43;2.40;;;23.40;1.00;;;;;;4993624;28;20454;-72
2023/07/05 10:54:47;;;;;;;3.63;3.00;;;23.50;1.00;;;;;;4993868;28;20510;-71
2023/07/05 10:57:34;;;;;;;5.07;2.40;;;23.60;1.00;;;;;;4993816;28;20415;-67
2023/07/05 11:00:24;;;;;;;2.63;2.33;;;23.90;1.00;;;;;;4993699;28;20408;-68
2023/07/05 11:02:58;;;;;;;5.90;3.00;;;23.60;1.00;;;;;;4993265;28;20451;-68
2023/07/05 11:05:41;;;;;;;3.37;2.77;;;23.50;1.00;;;;;;4992389;28;20431;-68
2023/07/05 11:08:19;;;;;;;3.20;2.40;;;23.00;1.00;;;;;;4993830;28;20423;-67
2023/07/05 11:10:47;;;;;;;3.27;2.97;;;23.20;1.00;;;;;;4993984;28;20408;-68
2023/07/05 11:13:15;;;;;;;3.20;2.90;;;23.00;1.00;;;;;;4993503;28;20467;-67
2023/07/05 11:15:41;;;;;;;8.20;2.60;;;22.90;1.00;;;;;;4993551;28;20828;-67
2023/07/05 11:18:14;;;;;;;3.50;2.67;;;22.90;1.00;;;;;;4993389;28;20420;-67
2023/07/05 11:20:40;;;;;;;3.00;2.70;;;22.90;1.00;;;;;;4993421;28;20536;-67
2023/07/05 11:23:09;;;;;;;5.33;3.17;;;22.80;1.00;;;;;;4992979;28;20428;-67
2023/07/05 11:25:58;;;;;;;3.90;2.63;;;22.70;1.00;;;;;;4993115;28;20415;-68
2023/07/05 11:28:31;;;;;;;3.13;2.83;;;22.70;1.00;;;;;;4993354;28;20442;-68
2023/07/05 11:30:56;;;;;;;3.83;2.67;;;22.60;1.00;;;;;;4993183;28;20463;-68
2023/07/05 11:33:22;;;;;;;3.90;3.50;;;22.80;1.00;;;;;;4992697;28;20927;-68
2023/07/05 11:35:54;;;;;;;4.67;4.17;;;22.90;1.00;;;;;;4992694;28;20200;-69
2023/07/05 11:38:35;;;;;;;5.07;4.27;;;23.00;1.00;;;;;;4993004;28;20412;-68
2023/07/05 11:41:05;;;;;;;3.43;2.97;;;23.00;1.00;;;;;;4992841;28;20419;-67
2023/07/05 11:43:41;;;;;;;3.63;3.33;;;22.90;1.00;;;;;;4992703;28;20462;-67
2023/07/05 11:46:39;;;;;;;5.20;3.90;;;22.70;1.00;;;;;;4992608;28;20423;-67
2023/07/05 11:49:20;;;;;;;3.70;3.40;;;22.60;1.00;;;;;;4992653;28;20418;-68
2023/07/05 11:51:51;;;;;;;4.13;3.80;;;22.70;1.00;;;;;;4991209;28;20420;-68
2023/07/05 11:54:18;;;;;;;4.23;3.93;;;23.00;1.00;;;;;;4992525;28;20427;-67
2023/07/05 11:56:45;;;;;;;4.40;4.00;;;23.10;1.00;;;;;;4992679;28;20439;-67
2023/07/05 11:59:16;;;;;;;3.70;3.40;;;23.10;1.00;;;;;;4992519;28;20474;-68
2023/07/05 12:01:42;;;;;;;5.60;4.03;;;23.10;1.00;;;;;;4992369;28;20408;-68
2023/07/05 12:04:17;;;;;;;3.77;3.47;;;23.20;1.00;;;;;;4992481;28;20464;-68
2023/07/05 12:06:44;;;;;;;4.20;3.90;;;23.40;1.00;;;;;;4992479;28;20414;-67
2023/07/05 12:09:17;;;;;;;4.20;3.90;;;23.50;1.00;;;;;;4992337;28;20551;-68
2023/07/05 12:11:43;;;;;;;3.67;3.40;;;23.50;1.00;;;;;;4992387;28;20404;-71
2023/07/05 12:14:15;;;;;;;4.50;4.10;;;23.40;1.00;;;;;;4992361;28;20423;-71
2023/07/05 12:16:41;;;;;;;4.57;4.03;;;23.40;1.00;;;;;;4992365;28;20459;-71
2023/07/05 12:19:16;;;;;;;4.73;4.33;;;23.40;1.00;;;;;;4988230;28;20434;-71
2023/07/05 12:21:52;;;;;;;4.30;4.00;;;23.30;1.00;;;;;;4987342;28;20501;-72
2023/07/05 12:24:18;;;;;;;4.47;3.80;;;23.20;1.00;;;;;;4988117;28;20491;-72
2023/07/05 12:26:44;;;;;;;4.70;4.27;;;23.20;1.00;;;;;;4988271;28;20419;-71
2023/07/05 12:29:23;;;;;;;5.30;4.90;;;23.20;1.00;;;;;;4988652;28;20214;-71
2023/07/05 12:32:01;;;;;;;5.23;3.60;;;23.30;1.00;;;;;;4988468;28;20176;-71
2023/07/05 12:34:27;;;;;;;5.20;4.70;;;23.40;1.00;;;;;;4989426;28;20416;-71
2023/07/05 12:36:52;;;;;;;5.97;4.03;;;23.50;1.00;;;;;;4988151;28;20446;-71
2023/07/05 12:39:18;;;;;;;5.20;4.37;;;23.40;1.00;;;;;;4987238;28;20661;-71
2023/07/05 12:42:02;;;;;;;4.17;3.80;;;23.20;1.00;;;;;;4988652;28;20199;-71
2023/07/05 12:44:30;;;;;;;3.73;3.43;;;23.10;1.00;;;;;;4988821;28;20606;-71
2023/07/05 12:47:10;;;;;;;3.67;3.40;;;23.30;1.00;;;;;;4988212;28;20729;-71
2023/07/05 12:49:36;;;;;;;4.77;4.37;;;23.30;1.00;;;;;;4992694;28;20514;-71
2023/07/05 12:52:02;;;;;;;4.33;4.00;;;23.30;1.00;;;;;;4991458;28;20481;-71
2023/07/05 12:54:28;;;;;;;3.90;3.60;;;23.50;1.00;;;;;;4992082;28;20187;-71
2023/07/05 12:56:56;;;;;;;4.50;4.10;;;23.50;1.00;;;;;;4992219;28;20554;-71
2023/07/05 12:59:34;;;;;;;4.30;3.70;;;23.60;1.00;;;;;;4991902;28;20432;-71
2023/07/05 13:02:03;;;;;;;4.23;3.90;;;23.60;1.00;;;;;;4991182;28;20770;-71
2023/07/05 13:04:30;;;;;;;4.13;3.87;;;23.60;1.00;;;;;;4993013;28;20428;-71
2023/07/05 13:06:57;;;;;;;4.70;4.30;;;23.80;1.00;;;;;;4995860;28;20451;-71
2023/07/05 13:09:35;;;;;;;4.33;3.93;;;23.90;1.00;;;;;;4995662;28;20501;-71